createdAt,value
2022-08-08T00:03:41.909Z,25.93
2022-08-08T00:08:49.165Z,25.89
2022-08-08T00:14:14.699Z,25.88
2022-08-08T00:19:23.073Z,25.84
2022-08-08T00:24:30.439Z,25.82
2022-08-08T00:29:44.883Z,25.78
2022-08-08T00:35:18.789Z,25.77
2022-08-08T00:41:08.980Z,25.73
2022-08-08T00:46:32.269Z,25.68
2022-08-08T00:52:00.488Z,25.62
2022-08-08T00:57:58.114Z,25.62
2022-08-08T01:04:02.805Z,25.57
2022-08-08T01:09:36.069Z,25.53
2022-08-08T01:15:10.084Z,25.50
2022-08-08T01:20:39.330Z,25.46
2022-08-08T01:26:30.236Z,25.39
2022-08-08T01:32:13.623Z,25.30
2022-08-08T01:37:57.828Z,25.27
2022-08-08T01:43:09.510Z,25.17
2022-08-08T01:48:30.419Z,25.16
2022-08-08T01:55:15.878Z,25.18
2022-08-08T01:59:13.660Z,25.18
2022-08-08T02:04:21.424Z,24.93
2022-08-08T02:10:02.055Z,24.93
2022-08-08T02:15:04.171Z,24.89
2022-08-08T02:20:16.265Z,24.88
2022-08-08T02:25:48.511Z,24.85
2022-08-08T02:31:01.997Z,24.79
2022-08-08T02:36:20.873Z,24.82
2022-08-08T02:42:05.379Z,24.86
2022-08-08T02:47:35.608Z,24.83
2022-08-08T02:53:12.595Z,24.79
2022-08-08T02:58:52.235Z,24.77
2022-08-08T03:05:05.047Z,24.73
2022-08-08T03:10:44.068Z,24.71
2022-08-08T03:16:35.525Z,24.69
2022-08-08T03:21:54.576Z,24.67
2022-08-08T03:27:09.318Z,24.55
2022-08-08T03:32:30.640Z,24.04
2022-08-08T03:38:55.127Z,23.65
2022-08-08T03:43:15.616Z,22.80
2022-08-08T03:49:10.097Z,23.25
2022-08-08T03:53:47.778Z,23.27
2022-08-08T03:58:53.846Z,23.10
2022-08-08T04:04:01.819Z,23.05
2022-08-08T04:09:19.088Z,22.94
2022-08-08T04:14:33.235Z,22.74
2022-08-08T04:19:38.017Z,22.80
2022-08-08T04:24:41.988Z,22.65
2022-08-08T04:30:01.155Z,22.75
2022-08-08T04:35:13.192Z,22.79
2022-08-08T04:40:18.100Z,22.73
2022-08-08T04:45:27.885Z,22.60
2022-08-08T04:50:38.171Z,22.65
2022-08-08T04:55:55.097Z,22.72
2022-08-08T05:01:00.183Z,22.93
2022-08-08T05:06:13.422Z,23.02
2022-08-08T05:11:23.102Z,23.12
2022-08-08T05:16:53.572Z,23.31
2022-08-08T05:21:57.973Z,23.35
2022-08-08T05:27:03.839Z,23.06
2022-08-08T05:32:08.927Z,23.16
2022-08-08T05:37:19.304Z,22.71
2022-08-08T05:42:29.011Z,22.72
2022-08-08T05:47:52.484Z,22.84
2022-08-08T05:52:56.351Z,22.42
2022-08-08T05:58:04.898Z,22.40
2022-08-08T06:03:24.932Z,22.57
2022-08-08T06:08:34.490Z,22.41
2022-08-08T06:13:47.641Z,22.32
2022-08-08T06:18:55.165Z,22.73
2022-08-08T06:24:04.986Z,22.38
2022-08-08T06:29:26.490Z,22.79
2022-08-08T06:34:40.548Z,22.72
2022-08-08T06:39:56.180Z,22.35
2022-08-08T06:44:59.819Z,22.89
2022-08-08T06:50:04.690Z,22.93
2022-08-08T06:55:08.975Z,23.32
2022-08-08T07:00:13.213Z,23.25
2022-08-08T07:05:20.595Z,23.16
2022-08-08T07:10:27.840Z,23.48
2022-08-08T07:16:05.319Z,23.60
2022-08-08T07:21:04.965Z,22.84
2022-08-08T07:26:09.272Z,23.28
2022-08-08T07:31:12.207Z,23.28
2022-08-08T07:36:16.495Z,23.24
2022-08-08T07:41:24.890Z,23.19
2022-08-08T07:46:32.862Z,23.14
2022-08-08T07:51:53.587Z,23.16
2022-08-08T07:57:09.015Z,23.09
2022-08-08T08:02:37.363Z,23.23
2022-08-08T08:07:39.469Z,23.27
2022-08-08T08:12:50.337Z,23.32
2022-08-08T08:17:56.550Z,23.35
2022-08-08T08:23:02.448Z,23.60
2022-08-08T08:28:09.395Z,23.72
2022-08-08T08:33:13.251Z,23.88
2022-08-08T08:38:19.693Z,23.89
2022-08-08T08:43:31.668Z,23.92
2022-08-08T08:48:36.877Z,24.00
2022-08-08T08:53:55.923Z,24.02
2022-08-08T08:59:06.729Z,24.04
2022-08-08T09:04:30.176Z,24.15
2022-08-08T09:09:47.481Z,24.12
2022-08-08T09:14:57.874Z,24.11
2022-08-08T09:21:58.548Z,24.13
2022-08-08T09:25:35.616Z,24.28
2022-08-08T09:30:40.136Z,24.22
2022-08-08T09:35:49.921Z,24.15
2022-08-08T09:40:57.668Z,24.19
2022-08-08T09:46:03.129Z,24.26
2022-08-08T09:51:06.344Z,24.38
2022-08-08T09:56:21.666Z,24.43
2022-08-08T10:01:59.339Z,24.48
2022-08-08T10:06:53.925Z,24.46
2022-08-08T10:12:27.931Z,24.52
2022-08-08T10:17:56.558Z,24.56
2022-08-08T10:22:54.986Z,24.61
2022-08-08T10:27:59.460Z,24.62
2022-08-08T10:33:02.424Z,24.73
2022-08-08T10:38:08.048Z,24.80
2022-08-08T10:43:12.564Z,24.89
2022-08-08T10:48:17.165Z,24.97
2022-08-08T10:53:56.186Z,24.93
2022-08-08T10:59:00.032Z,24.96
2022-08-08T11:04:04.685Z,24.95
2022-08-08T11:09:15.004Z,24.94
2022-08-08T11:14:26.252Z,24.96
2022-08-08T11:19:29.332Z,24.94
2022-08-08T11:24:35.738Z,25.05
2022-08-08T11:29:51.050Z,25.06
2022-08-08T11:35:23.469Z,25.09
2022-08-08T11:40:29.122Z,25.11
2022-08-08T11:45:59.926Z,25.14
2022-08-08T11:50:58.722Z,25.18
2022-08-08T11:56:02.169Z,25.14
2022-08-08T12:01:12.351Z,25.12
2022-08-08T12:06:22.174Z,25.12
2022-08-08T12:11:29.268Z,25.13
2022-08-08T12:16:43.409Z,25.13
2022-08-08T12:21:59.646Z,25.18
2022-08-08T12:27:08.142Z,25.19
2022-08-08T12:32:19.547Z,25.19
2022-08-08T12:37:40.691Z,25.22
2022-08-08T12:42:46.505Z,25.24
2022-08-08T12:48:10.398Z,25.30
2022-08-08T12:53:30.167Z,25.31
2022-08-08T12:58:44.869Z,25.36
2022-08-08T13:03:51.938Z,25.37
2022-08-08T13:08:56.732Z,25.38
2022-08-08T13:14:04.336Z,25.45
2022-08-08T13:19:11.757Z,25.48
2022-08-08T13:24:18.551Z,25.48
2022-08-08T13:29:49.463Z,25.48
2022-08-08T13:34:55.384Z,25.48
2022-08-08T13:39:58.629Z,25.53
2022-08-08T13:45:04.482Z,25.56
2022-08-08T13:50:35.037Z,25.59
2022-08-08T13:55:36.581Z,25.61
2022-08-08T14:00:45.364Z,25.64
2022-08-08T14:06:00.698Z,25.68
2022-08-08T14:11:04.498Z,25.70
2022-08-08T14:16:16.758Z,25.75
2022-08-08T14:21:22.311Z,25.76
2022-08-08T14:26:28.419Z,25.84
2022-08-08T14:32:06.300Z,25.84
2022-08-08T14:36:55.920Z,25.89
2022-08-08T14:42:03.373Z,25.92
2022-08-08T14:47:20.793Z,25.96
2022-08-08T14:52:26.150Z,25.98
2022-08-08T14:58:02.287Z,26.01
2022-08-08T15:02:58.647Z,26.04
2022-08-08T15:08:22.177Z,26.07
2022-08-08T15:13:40.912Z,26.11
2022-08-08T15:18:59.671Z,26.15
2022-08-08T15:24:03.930Z,26.20
2022-08-08T15:29:06.773Z,26.26
2022-08-08T15:34:28.901Z,26.32
2022-08-08T15:39:38.239Z,26.37
2022-08-08T15:44:42.511Z,26.35
2022-08-08T15:49:47.840Z,26.44
2022-08-08T15:54:52.907Z,26.52
2022-08-08T16:00:14.147Z,26.55
2022-08-08T16:05:18.898Z,26.58
2022-08-08T16:13:14.268Z,26.72
2022-08-08T16:15:59.543Z,26.67
2022-08-08T16:21:20.809Z,27.99
2022-08-08T16:26:33.818Z,28.03
2022-08-08T16:31:40.926Z,28.50
2022-08-08T16:36:45.462Z,28.66
2022-08-08T16:41:53.906Z,27.85
2022-08-08T16:47:17.287Z,27.48
2022-08-08T16:55:04.275Z,27.43
2022-08-08T16:58:15.683Z,27.36
2022-08-08T17:03:07.791Z,27.47
2022-08-08T17:08:10.559Z,27.54
2022-08-08T17:13:14.774Z,27.22
2022-08-08T17:18:19.300Z,27.08
2022-08-08T17:23:58.281Z,27.14
2022-08-08T17:28:46.763Z,27.19
2022-08-08T17:34:35.867Z,27.12
2022-08-08T17:39:45.453Z,27.13
2022-08-08T17:44:39.844Z,27.05
2022-08-08T17:49:47.087Z,26.94
2022-08-08T17:54:56.422Z,26.90
2022-08-08T18:00:01.682Z,26.92
2022-08-08T18:05:08.564Z,26.86
2022-08-08T18:10:17.506Z,26.84
2022-08-08T18:15:21.613Z,26.84
2022-08-08T18:20:36.803Z,26.81
2022-08-08T18:25:48.963Z,26.84
2022-08-08T18:30:53.773Z,26.83
2022-08-08T18:36:02.866Z,26.78
2022-08-08T18:41:06.614Z,26.81
2022-08-08T18:46:54.982Z,26.84
2022-08-08T18:51:48.482Z,26.83
2022-08-08T18:56:56.962Z,26.80
2022-08-08T19:02:25.541Z,26.80
2022-08-08T19:07:29.946Z,26.80
2022-08-08T19:12:36.312Z,26.81
2022-08-08T19:17:47.952Z,26.81
2022-08-08T19:23:07.631Z,26.83
2022-08-08T19:28:18.157Z,26.85
2022-08-08T19:33:25.204Z,26.87
2022-08-08T19:38:42.504Z,26.84
2022-08-08T19:44:02.263Z,26.78
2022-08-08T19:49:07.893Z,26.82
2022-08-08T19:54:13.852Z,26.79
2022-08-08T19:59:22.078Z,26.79
2022-08-08T20:04:26.757Z,26.77
2022-08-08T20:09:30.059Z,26.80
2022-08-08T20:14:35.937Z,26.66
2022-08-08T20:19:46.352Z,26.70
2022-08-08T20:24:50.453Z,26.74
2022-08-08T20:30:00.451Z,26.77
2022-08-08T20:35:06.169Z,26.76
2022-08-08T20:40:16.577Z,26.73
2022-08-08T20:45:23.375Z,26.65
2022-08-08T20:50:44.116Z,26.62
2022-08-08T20:55:51.189Z,26.62
2022-08-08T21:00:54.229Z,26.56
2022-08-08T21:05:58.756Z,26.56
2022-08-08T21:11:02.492Z,26.52
2022-08-08T21:16:20.821Z,26.51
2022-08-08T21:21:39.415Z,26.50
2022-08-08T21:26:44.669Z,26.47
2022-08-08T21:31:53.128Z,26.46
2022-08-08T21:37:11.215Z,26.46
2022-08-08T21:42:14.298Z,26.50
2022-08-08T21:48:05.522Z,26.46
2022-08-08T21:54:34.460Z,26.42
2022-08-08T21:58:07.615Z,26.43
2022-08-08T22:03:17.803Z,26.48
2022-08-08T22:08:24.080Z,26.54
2022-08-08T22:13:47.846Z,26.48
2022-08-08T22:18:53.001Z,26.36
2022-08-08T22:23:58.371Z,26.31
2022-08-08T22:29:14.593Z,26.26
2022-08-08T22:34:24.947Z,26.22
2022-08-08T22:39:46.025Z,26.17
2022-08-08T22:44:54.377Z,26.10
2022-08-08T22:50:00.878Z,26.06
2022-08-08T22:55:06.197Z,26.04
2022-08-08T23:00:11.705Z,26.02
2022-08-08T23:05:16.325Z,25.92
2022-08-08T23:10:21.366Z,25.80
2022-08-08T23:16:40.784Z,25.77
2022-08-08T23:20:54.628Z,25.73
2022-08-08T23:25:59.097Z,25.69
2022-08-08T23:31:02.823Z,25.62
2022-08-08T23:36:08.170Z,25.59
2022-08-08T23:41:23.035Z,25.57
2022-08-08T23:49:05.980Z,25.39
2022-08-08T23:52:06.629Z,25.41
2022-08-08T23:57:25.662Z,25.32
